Terminal Aerodrome Forecast
Issued by NWS

Home | Current Version | Previous Version | Text Only | Print | Product List | Glossary On
Versions: 1 2 3 4 5 6 7 8 9 10 11 12 13 14 15
000
FTUS43 KMPX 131615 AAA
TAFAXN
TAF AMD
KAXN 131615Z 1316/1412 14009KT P6SM SCT040 OVC080
      TEMPO 1317/1319 6SM -SN OVC040
     FM132000 16010KT P6SM SCT020 BKN050
     FM140000 19007KT P6SM SKC=

USA.gov is the U.S. government's official web portal to all federal, state and local government web resources and services.